sensor_id;sensor_type;location;lat;lon;timestamp;P1;durP1;ratioP1;P2;durP2;ratioP2
43841;SDS011;29495;49.970;20.842;2023-03-23T00:00:36;11.95;;;6.55;;
43841;SDS011;29495;49.970;20.842;2023-03-23T00:03:23;10.20;;;6.30;;
43841;SDS011;29495;49.970;20.842;2023-03-23T00:12:05;9.32;;;5.13;;
43841;SDS011;29495;49.970;20.842;2023-03-23T00:14:43;10.05;;;5.68;;
43841;SDS011;29495;49.970;20.842;2023-03-23T00:17:11;8.45;;;5.55;;
43841;SDS011;29495;49.970;20.842;2023-03-23T00:19:40;9.13;;;5.28;;
43841;SDS011;29495;49.970;20.842;2023-03-23T00:22:14;8.05;;;5.50;;
43841;SDS011;29495;49.970;20.842;2023-03-23T00:24:43;7.40;;;5.32;;
43841;SDS011;29495;49.970;20.842;2023-03-23T00:27:21;9.75;;;6.85;;
43841;SDS011;29495;49.970;20.842;2023-03-23T00:30:06;11.10;;;6.82;;
43841;SDS011;29495;49.970;20.842;2023-03-23T00:32:43;8.43;;;5.57;;
43841;SDS011;29495;49.970;20.842;2023-03-23T00:35:09;8.07;;;5.18;;
43841;SDS011;29495;49.970;20.842;2023-03-23T00:37:58;9.77;;;5.60;;
43841;SDS011;29495;49.970;20.842;2023-03-23T08:44:09;4.30;;;3.25;;
43841;SDS011;29495;49.970;20.842;2023-03-23T08:47:33;3.22;;;2.70;;
43841;SDS011;29495;49.970;20.842;2023-03-23T08:50:42;3.90;;;3.10;;
43841;SDS011;29495;49.970;20.842;2023-03-23T08:53:37;5.50;;;3.03;;
43841;SDS011;29495;49.970;20.842;2023-03-23T08:56:24;4.57;;;2.78;;
43841;SDS011;29495;49.970;20.842;2023-03-23T08:59:13;3.65;;;2.70;;
43841;SDS011;29495;49.970;20.842;2023-03-23T09:01:55;4.13;;;2.65;;
43841;SDS011;29495;49.970;20.842;2023-03-23T09:04:41;4.50;;;3.08;;
43841;SDS011;29495;49.970;20.842;2023-03-23T09:07:23;4.07;;;2.75;;
43841;SDS011;29495;49.970;20.842;2023-03-23T09:09:49;77.57;;;43.38;;
43841;SDS011;29495;49.970;20.842;2023-03-23T09:12:15;29.25;;;17.83;;
43841;SDS011;29495;49.970;20.842;2023-03-23T09:14:41;10.23;;;5.43;;
43841;SDS011;29495;49.970;20.842;2023-03-23T09:17:07;6.53;;;3.15;;
43841;SDS011;29495;49.970;20.842;2023-03-23T09:19:33;5.43;;;2.70;;
43841;SDS011;29495;49.970;20.842;2023-03-23T09:22:00;4.45;;;2.75;;
43841;SDS011;29495;49.970;20.842;2023-03-23T09:24:26;5.07;;;2.60;;
43841;SDS011;29495;49.970;20.842;2023-03-23T09:26:52;4.00;;;2.35;;
43841;SDS011;29495;49.970;20.842;2023-03-23T09:29:19;5.85;;;2.60;;
43841;SDS011;29495;49.970;20.842;2023-03-23T09:31:46;3.63;;;2.70;;
43841;SDS011;29495;49.970;20.842;2023-03-23T09:34:13;3.90;;;2.60;;
43841;SDS011;29495;49.970;20.842;2023-03-23T09:36:41;4.70;;;2.30;;
43841;SDS011;29495;49.970;20.842;2023-03-23T09:39:08;3.33;;;2.50;;
43841;SDS011;29495;49.970;20.842;2023-03-23T09:49:27;3.50;;;2.45;;
43841;SDS011;29495;49.970;20.842;2023-03-23T09:52:03;3.70;;;2.72;;
43841;SDS011;29495;49.970;20.842;2023-03-23T09:54:44;3.05;;;2.75;;
43841;SDS011;29495;49.970;20.842;2023-03-23T10:02:34;4.45;;;2.83;;
43841;SDS011;29495;49.970;20.842;2023-03-23T10:08:02;3.70;;;2.58;;
43841;SDS011;29495;49.970;20.842;2023-03-23T10:16:08;3.58;;;2.28;;
43841;SDS011;29495;49.970;20.842;2023-03-23T10:18:41;3.08;;;2.13;;
43841;SDS011;29495;49.970;20.842;2023-03-23T10:21:21;3.05;;;2.55;;
43841;SDS011;29495;49.970;20.842;2023-03-23T10:34:16;3.65;;;2.53;;
43841;SDS011;29495;49.970;20.842;2023-03-23T10:37:32;3.38;;;2.72;;
43841;SDS011;29495;49.970;20.842;2023-03-23T10:39:41;6.90;;;2.50;;
43841;SDS011;29495;49.970;20.842;2023-03-23T10:42:25;4.55;;;2.78;;
43841;SDS011;29495;49.970;20.842;2023-03-23T10:44:53;3.72;;;2.80;;
43841;SDS011;29495;49.970;20.842;2023-03-23T10:47:21;2.30;;;2.10;;
43841;SDS011;29495;49.970;20.842;2023-03-23T10:55:03;4.28;;;2.53;;
43841;SDS011;29495;49.970;20.842;2023-03-23T10:57:33;4.35;;;2.72;;
43841;SDS011;29495;49.970;20.842;2023-03-23T11:02:43;4.33;;;3.53;;
43841;SDS011;29495;49.970;20.842;2023-03-23T11:05:17;6.00;;;3.97;;
43841;SDS011;29495;49.970;20.842;2023-03-23T11:08:03;3.92;;;3.00;;
43841;SDS011;29495;49.970;20.842;2023-03-23T11:10:37;5.43;;;3.10;;
43841;SDS011;29495;49.970;20.842;2023-03-23T11:13:12;6.10;;;3.58;;
43841;SDS011;29495;49.970;20.842;2023-03-23T11:15:41;4.38;;;2.58;;
43841;SDS011;29495;49.970;20.842;2023-03-23T11:18:11;5.13;;;3.00;;
43841;SDS011;29495;49.970;20.842;2023-03-23T11:20:43;2.65;;;1.52;;
43841;SDS011;29495;49.970;20.842;2023-03-23T11:23:21;1.83;;;1.23;;
43841;SDS011;29495;49.970;20.842;2023-03-23T11:28:34;2.17;;;1.48;;
43841;SDS011;29495;49.970;20.842;2023-03-23T11:31:04;1.17;;;0.98;;
43841;SDS011;29495;49.970;20.842;2023-03-23T11:33:35;1.55;;;1.15;;
43841;SDS011;29495;49.970;20.842;2023-03-23T11:36:06;1.08;;;0.88;;
43841;SDS011;29495;49.970;20.842;2023-03-23T11:38:33;1.60;;;1.20;;
43841;SDS011;29495;49.970;20.842;2023-03-23T11:41:00;4.60;;;1.52;;
43841;SDS011;29495;49.970;20.842;2023-03-23T11:43:38;2.20;;;1.25;;
43841;SDS011;29495;49.970;20.842;2023-03-23T11:49:37;2.35;;;1.45;;
43841;SDS011;29495;49.970;20.842;2023-03-23T11:53:49;2.65;;;1.52;;
43841;SDS011;29495;49.970;20.842;2023-03-23T11:56:40;2.08;;;1.27;;
43841;SDS011;29495;49.970;20.842;2023-03-23T11:59:12;1.10;;;1.02;;
43841;SDS011;29495;49.970;20.842;2023-03-23T12:04:32;1.00;;;0.90;;
43841;SDS011;29495;49.970;20.842;2023-03-23T12:07:20;1.33;;;0.98;;
43841;SDS011;29495;49.970;20.842;2023-03-23T12:49:37;1.85;;;1.30;;
43841;SDS011;29495;49.970;20.842;2023-03-23T12:57:32;2.65;;;1.48;;
43841;SDS011;29495;49.970;20.842;2023-03-23T13:00:19;3.50;;;1.92;;
43841;SDS011;29495;49.970;20.842;2023-03-23T13:03:35;2.60;;;1.40;;
43841;SDS011;29495;49.970;20.842;2023-03-23T13:05:49;3.35;;;1.20;;
43841;SDS011;29495;49.970;20.842;2023-03-23T13:08:24;3.03;;;1.70;;
43841;SDS011;29495;49.970;20.842;2023-03-23T13:10:55;2.53;;;1.58;;
43841;SDS011;29495;49.970;20.842;2023-03-23T13:17:10;2.30;;;1.45;;
43841;SDS011;29495;49.970;20.842;2023-03-23T13:19:59;4.15;;;2.25;;
43841;SDS011;29495;49.970;20.842;2023-03-23T13:28:19;2.25;;;1.75;;
43841;SDS011;29495;49.970;20.842;2023-03-23T13:31:02;2.15;;;1.20;;
43841;SDS011;29495;49.970;20.842;2023-03-23T13:33:36;1.88;;;1.40;;
43841;SDS011;29495;49.970;20.842;2023-03-23T13:36:12;3.45;;;1.40;;
43841;SDS011;29495;49.970;20.842;2023-03-23T13:38:44;1.67;;;1.40;;
43841;SDS011;29495;49.970;20.842;2023-03-23T13:41:13;3.03;;;1.40;;
43841;SDS011;29495;49.970;20.842;2023-03-23T13:43:42;1.88;;;1.60;;
43841;SDS011;29495;49.970;20.842;2023-03-23T13:46:11;2.63;;;1.33;;
43841;SDS011;29495;49.970;20.842;2023-03-23T13:48:48;2.15;;;1.60;;
43841;SDS011;29495;49.970;20.842;2023-03-23T13:51:24;2.45;;;1.40;;
43841;SDS011;29495;49.970;20.842;2023-03-23T14:01:55;3.42;;;1.60;;
43841;SDS011;29495;49.970;20.842;2023-03-23T14:04:23;2.38;;;1.80;;
43841;SDS011;29495;49.970;20.842;2023-03-23T14:07:07;3.47;;;1.90;;
43841;SDS011;29495;49.970;20.842;2023-03-23T14:09:42;2.28;;;1.58;;
43841;SDS011;29495;49.970;20.842;2023-03-23T14:12:17;5.35;;;1.77;;
43841;SDS011;29495;49.970;20.842;2023-03-23T14:14:47;1.20;;;1.10;;
43841;SDS011;29495;49.970;20.842;2023-03-23T14:19:51;4.00;;;1.33;;
43841;SDS011;29495;49.970;20.842;2023-03-23T14:22:27;2.05;;;1.10;;
43841;SDS011;29495;49.970;20.842;2023-03-23T14:25:07;2.58;;;1.80;;
43841;SDS011;29495;49.970;20.842;2023-03-23T14:27:35;3.47;;;1.92;;
43841;SDS011;29495;49.970;20.842;2023-03-23T14:30:03;2.70;;;1.67;;
43841;SDS011;29495;49.970;20.842;2023-03-23T14:32:32;4.25;;;1.77;;
43841;SDS011;29495;49.970;20.842;2023-03-23T14:34:59;3.72;;;1.90;;
43841;SDS011;29495;49.970;20.842;2023-03-23T14:37:30;3.95;;;1.90;;
43841;SDS011;29495;49.970;20.842;2023-03-23T14:39:57;3.53;;;1.90;;
43841;SDS011;29495;49.970;20.842;2023-03-23T14:42:28;3.33;;;1.90;;
43841;SDS011;29495;49.970;20.842;2023-03-23T14:44:56;3.33;;;2.00;;
43841;SDS011;29495;49.970;20.842;2023-03-23T14:47:40;4.90;;;2.22;;
43841;SDS011;29495;49.970;20.842;2023-03-23T14:52:51;3.50;;;2.03;;
43841;SDS011;29495;49.970;20.842;2023-03-23T14:55:21;2.10;;;1.85;;
43841;SDS011;29495;49.970;20.842;2023-03-23T14:57:48;2.38;;;1.60;;
43841;SDS011;29495;49.970;20.842;2023-03-23T15:00:22;2.50;;;1.75;;
43841;SDS011;29495;49.970;20.842;2023-03-23T15:02:53;3.00;;;1.58;;
43841;SDS011;29495;49.970;20.842;2023-03-23T15:05:29;3.53;;;2.05;;
43841;SDS011;29495;49.970;20.842;2023-03-23T15:08:02;2.53;;;1.52;;
43841;SDS011;29495;49.970;20.842;2023-03-23T15:10:31;3.33;;;1.92;;
43841;SDS011;29495;49.970;20.842;2023-03-23T15:12:58;2.65;;;1.58;;
43841;SDS011;29495;49.970;20.842;2023-03-23T15:17:52;2.78;;;1.60;;
43841;SDS011;29495;49.970;20.842;2023-03-23T15:22:46;2.97;;;1.70;;
43841;SDS011;29495;49.970;20.842;2023-03-23T15:25:23;2.40;;;1.45;;
43841;SDS011;29495;49.970;20.842;2023-03-23T15:27:58;4.60;;;1.42;;
43841;SDS011;29495;49.970;20.842;2023-03-23T15:30:32;3.13;;;1.83;;
43841;SDS011;29495;49.970;20.842;2023-03-23T15:33:09;2.17;;;1.67;;
43841;SDS011;29495;49.970;20.842;2023-03-23T15:35:37;2.38;;;1.45;;
43841;SDS011;29495;49.970;20.842;2023-03-23T15:38:14;2.60;;;1.50;;
43841;SDS011;29495;49.970;20.842;2023-03-23T15:40:51;3.03;;;1.52;;
43841;SDS011;29495;49.970;20.842;2023-03-23T15:45:52;2.63;;;1.35;;
43841;SDS011;29495;49.970;20.842;2023-03-23T15:48:19;2.42;;;1.70;;
43841;SDS011;29495;49.970;20.842;2023-03-23T15:50:46;2.17;;;1.17;;
43841;SDS011;29495;49.970;20.842;2023-03-23T15:53:35;2.30;;;1.50;;
43841;SDS011;29495;49.970;20.842;2023-03-23T15:56:03;2.50;;;1.63;;
43841;SDS011;29495;49.970;20.842;2023-03-23T15:58:32;2.35;;;1.52;;
43841;SDS011;29495;49.970;20.842;2023-03-23T16:00:59;1.70;;;1.13;;
43841;SDS011;29495;49.970;20.842;2023-03-23T16:03:36;2.25;;;1.48;;
43841;SDS011;29495;49.970;20.842;2023-03-23T16:06:02;2.78;;;1.67;;
43841;SDS011;29495;49.970;20.842;2023-03-23T16:08:28;3.40;;;1.80;;
43841;SDS011;29495;49.970;20.842;2023-03-23T16:10:54;2.13;;;1.27;;
43841;SDS011;29495;49.970;20.842;2023-03-23T16:13:20;3.00;;;1.70;;
43841;SDS011;29495;49.970;20.842;2023-03-23T16:15:47;2.47;;;1.50;;
43841;SDS011;29495;49.970;20.842;2023-03-23T16:18:18;2.40;;;1.52;;
43841;SDS011;29495;49.970;20.842;2023-03-23T16:20:46;2.65;;;1.58;;
43841;SDS011;29495;49.970;20.842;2023-03-23T16:23:13;3.58;;;1.83;;
43841;SDS011;29495;49.970;20.842;2023-03-23T16:25:39;2.28;;;1.50;;
43841;SDS011;29495;49.970;20.842;2023-03-23T16:28:08;2.00;;;1.50;;
43841;SDS011;29495;49.970;20.842;2023-03-23T16:30:38;4.50;;;2.13;;
43841;SDS011;29495;49.970;20.842;2023-03-23T16:33:05;2.60;;;1.90;;
43841;SDS011;29495;49.970;20.842;2023-03-23T16:35:31;3.83;;;1.80;;
43841;SDS011;29495;49.970;20.842;2023-03-23T16:37:57;2.72;;;1.98;;
43841;SDS011;29495;49.970;20.842;2023-03-23T16:40:23;2.53;;;1.60;;
43841;SDS011;29495;49.970;20.842;2023-03-23T16:42:50;4.60;;;2.30;;
43841;SDS011;29495;49.970;20.842;2023-03-23T16:45:16;3.83;;;1.90;;
43841;SDS011;29495;49.970;20.842;2023-03-23T16:47:43;3.47;;;1.98;;
43841;SDS011;29495;49.970;20.842;2023-03-23T16:50:10;4.70;;;2.67;;
43841;SDS011;29495;49.970;20.842;2023-03-23T16:55:06;3.60;;;2.35;;
43841;SDS011;29495;49.970;20.842;2023-03-23T16:57:33;4.78;;;2.50;;
43841;SDS011;29495;49.970;20.842;2023-03-23T17:00:02;4.17;;;2.00;;
43841;SDS011;29495;49.970;20.842;2023-03-23T17:02:31;5.10;;;2.45;;
43841;SDS011;29495;49.970;20.842;2023-03-23T17:04:57;4.28;;;2.50;;
43841;SDS011;29495;49.970;20.842;2023-03-23T17:07:24;4.88;;;2.80;;
43841;SDS011;29495;49.970;20.842;2023-03-23T17:09:50;6.20;;;2.80;;
43841;SDS011;29495;49.970;20.842;2023-03-23T17:12:16;5.32;;;3.03;;
43841;SDS011;29495;49.970;20.842;2023-03-23T17:14:42;5.18;;;3.47;;
43841;SDS011;29495;49.970;20.842;2023-03-23T17:17:08;6.28;;;3.47;;
43841;SDS011;29495;49.970;20.842;2023-03-23T17:19:34;5.07;;;3.53;;
43841;SDS011;29495;49.970;20.842;2023-03-23T17:22:00;7.03;;;3.88;;
43841;SDS011;29495;49.970;20.842;2023-03-23T17:24:26;6.85;;;4.32;;
43841;SDS011;29495;49.970;20.842;2023-03-23T17:26:52;9.05;;;4.47;;
43841;SDS011;29495;49.970;20.842;2023-03-23T17:29:19;11.43;;;6.07;;
43841;SDS011;29495;49.970;20.842;2023-03-23T17:31:47;13.27;;;6.95;;
43841;SDS011;29495;49.970;20.842;2023-03-23T17:34:13;13.55;;;7.55;;
43841;SDS011;29495;49.970;20.842;2023-03-23T17:36:39;15.23;;;8.63;;
43841;SDS011;29495;49.970;20.842;2023-03-23T17:39:05;15.90;;;9.05;;
43841;SDS011;29495;49.970;20.842;2023-03-23T17:41:31;12.75;;;8.13;;
43841;SDS011;29495;49.970;20.842;2023-03-23T17:43:57;14.88;;;8.13;;
43841;SDS011;29495;49.970;20.842;2023-03-23T17:46:23;13.85;;;8.00;;
43841;SDS011;29495;49.970;20.842;2023-03-23T17:48:49;14.35;;;8.60;;
43841;SDS011;29495;49.970;20.842;2023-03-23T17:51:16;11.82;;;7.28;;
43841;SDS011;29495;49.970;20.842;2023-03-23T17:53:42;13.93;;;7.82;;
43841;SDS011;29495;49.970;20.842;2023-03-23T17:56:07;13.70;;;7.93;;
43841;SDS011;29495;49.970;20.842;2023-03-23T17:58:34;14.30;;;7.57;;
43841;SDS011;29495;49.970;20.842;2023-03-23T18:01:00;15.55;;;8.82;;
43841;SDS011;29495;49.970;20.842;2023-03-23T18:03:26;14.50;;;8.25;;
43841;SDS011;29495;49.970;20.842;2023-03-23T18:06:02;14.88;;;8.40;;
43841;SDS011;29495;49.970;20.842;2023-03-23T18:08:31;16.65;;;8.43;;
43841;SDS011;29495;49.970;20.842;2023-03-23T18:10:58;14.27;;;7.90;;
43841;SDS011;29495;49.970;20.842;2023-03-23T18:13:26;17.42;;;9.70;;
43841;SDS011;29495;49.970;20.842;2023-03-23T18:15:54;16.67;;;9.03;;
43841;SDS011;29495;49.970;20.842;2023-03-23T18:18:21;18.17;;;10.70;;
43841;SDS011;29495;49.970;20.842;2023-03-23T18:20:59;19.52;;;10.23;;
43841;SDS011;29495;49.970;20.842;2023-03-23T18:23:27;19.40;;;9.98;;
43841;SDS011;29495;49.970;20.842;2023-03-23T18:25:53;16.48;;;10.10;;
43841;SDS011;29495;49.970;20.842;2023-03-23T18:28:20;19.40;;;11.68;;
43841;SDS011;29495;49.970;20.842;2023-03-23T18:30:47;20.08;;;11.77;;
43841;SDS011;29495;49.970;20.842;2023-03-23T18:33:14;20.95;;;12.70;;
43841;SDS011;29495;49.970;20.842;2023-03-23T18:35:41;24.80;;;13.88;;
43841;SDS011;29495;49.970;20.842;2023-03-23T18:38:08;21.80;;;12.70;;
43841;SDS011;29495;49.970;20.842;2023-03-23T18:40:34;24.95;;;13.75;;
43841;SDS011;29495;49.970;20.842;2023-03-23T18:43:00;22.23;;;12.70;;
43841;SDS011;29495;49.970;20.842;2023-03-23T18:45:26;26.10;;;14.65;;
43841;SDS011;29495;49.970;20.842;2023-03-23T18:47:52;24.67;;;13.73;;
43841;SDS011;29495;49.970;20.842;2023-03-23T18:50:18;29.17;;;14.80;;
43841;SDS011;29495;49.970;20.842;2023-03-23T18:52:44;28.83;;;15.68;;
43841;SDS011;29495;49.970;20.842;2023-03-23T18:55:10;30.63;;;17.17;;
43841;SDS011;29495;49.970;20.842;2023-03-23T18:57:38;37.53;;;20.15;;
43841;SDS011;29495;49.970;20.842;2023-03-23T19:00:04;38.97;;;21.23;;
43841;SDS011;29495;49.970;20.842;2023-03-23T19:02:31;40.38;;;21.70;;
43841;SDS011;29495;49.970;20.842;2023-03-23T19:04:57;40.03;;;22.45;;
43841;SDS011;29495;49.970;20.842;2023-03-23T19:07:23;37.75;;;21.85;;
43841;SDS011;29495;49.970;20.842;2023-03-23T19:09:49;43.08;;;24.85;;
43841;SDS011;29495;49.970;20.842;2023-03-23T19:12:15;42.83;;;25.00;;
43841;SDS011;29495;49.970;20.842;2023-03-23T19:14:41;45.08;;;26.98;;
43841;SDS011;29495;49.970;20.842;2023-03-23T19:17:08;45.75;;;26.27;;
43841;SDS011;29495;49.970;20.842;2023-03-23T19:19:34;45.20;;;25.98;;
43841;SDS011;29495;49.970;20.842;2023-03-23T19:22:00;43.97;;;24.00;;
43841;SDS011;29495;49.970;20.842;2023-03-23T19:24:27;42.95;;;24.65;;
43841;SDS011;29495;49.970;20.842;2023-03-23T19:26:55;38.97;;;20.90;;
43841;SDS011;29495;49.970;20.842;2023-03-23T19:29:21;34.35;;;19.30;;
43841;SDS011;29495;49.970;20.842;2023-03-23T19:31:48;30.23;;;17.58;;
43841;SDS011;29495;49.970;20.842;2023-03-23T19:34:14;27.75;;;15.93;;
43841;SDS011;29495;49.970;20.842;2023-03-23T19:36:41;27.80;;;15.00;;
43841;SDS011;29495;49.970;20.842;2023-03-23T19:39:08;24.73;;;12.85;;
43841;SDS011;29495;49.970;20.842;2023-03-23T19:41:35;20.73;;;11.57;;
43841;SDS011;29495;49.970;20.842;2023-03-23T19:44:01;20.92;;;10.82;;
43841;SDS011;29495;49.970;20.842;2023-03-23T19:46:28;14.98;;;8.77;;
43841;SDS011;29495;49.970;20.842;2023-03-23T19:48:55;13.90;;;8.13;;
43841;SDS011;29495;49.970;20.842;2023-03-23T19:51:21;13.82;;;7.60;;
43841;SDS011;29495;49.970;20.842;2023-03-23T19:53:48;14.50;;;7.93;;
43841;SDS011;29495;49.970;20.842;2023-03-23T19:56:16;13.13;;;8.15;;
43841;SDS011;29495;49.970;20.842;2023-03-23T19:58:46;13.50;;;7.07;;
43841;SDS011;29495;49.970;20.842;2023-03-23T20:01:12;13.68;;;7.60;;
43841;SDS011;29495;49.970;20.842;2023-03-23T20:03:39;11.25;;;6.45;;
43841;SDS011;29495;49.970;20.842;2023-03-23T20:06:07;9.32;;;5.72;;
43841;SDS011;29495;49.970;20.842;2023-03-23T20:08:40;11.65;;;5.78;;
43841;SDS011;29495;49.970;20.842;2023-03-23T20:11:08;9.90;;;5.60;;
43841;SDS011;29495;49.970;20.842;2023-03-23T20:13:37;7.43;;;5.25;;
43841;SDS011;29495;49.970;20.842;2023-03-23T20:16:03;7.63;;;4.72;;
43841;SDS011;29495;49.970;20.842;2023-03-23T20:18:30;7.90;;;4.95;;
43841;SDS011;29495;49.970;20.842;2023-03-23T20:21:03;7.30;;;4.60;;
43841;SDS011;29495;49.970;20.842;2023-03-23T20:23:34;7.88;;;4.65;;
43841;SDS011;29495;49.970;20.842;2023-03-23T20:26:02;6.78;;;4.15;;
43841;SDS011;29495;49.970;20.842;2023-03-23T20:28:30;7.78;;;4.75;;
43841;SDS011;29495;49.970;20.842;2023-03-23T20:31:00;7.40;;;4.43;;
43841;SDS011;29495;49.970;20.842;2023-03-23T20:33:38;6.40;;;4.05;;
43841;SDS011;29495;49.970;20.842;2023-03-23T20:36:05;5.13;;;3.55;;
43841;SDS011;29495;49.970;20.842;2023-03-23T20:38:35;5.85;;;3.65;;
43841;SDS011;29495;49.970;20.842;2023-03-23T20:41:03;6.28;;;3.67;;
43841;SDS011;29495;49.970;20.842;2023-03-23T20:43:33;7.20;;;4.03;;
43841;SDS011;29495;49.970;20.842;2023-03-23T20:46:00;4.97;;;3.20;;
43841;SDS011;29495;49.970;20.842;2023-03-23T20:48:29;5.63;;;3.70;;
43841;SDS011;29495;49.970;20.842;2023-03-23T20:50:57;6.60;;;3.40;;
43841;SDS011;29495;49.970;20.842;2023-03-23T20:53:25;4.57;;;3.13;;
43841;SDS011;29495;49.970;20.842;2023-03-23T20:55:53;4.07;;;3.10;;
43841;SDS011;29495;49.970;20.842;2023-03-23T20:58:22;5.65;;;2.85;;
43841;SDS011;29495;49.970;20.842;2023-03-23T21:00:50;5.47;;;3.10;;
43841;SDS011;29495;49.970;20.842;2023-03-23T21:03:27;4.18;;;3.10;;
43841;SDS011;29495;49.970;20.842;2023-03-23T21:06:02;5.20;;;3.42;;
43841;SDS011;29495;49.970;20.842;2023-03-23T21:08:31;4.85;;;3.20;;
43841;SDS011;29495;49.970;20.842;2023-03-23T21:11:01;5.85;;;3.33;;
43841;SDS011;29495;49.970;20.842;2023-03-23T21:13:28;4.72;;;3.17;;
43841;SDS011;29495;49.970;20.842;2023-03-23T21:15:54;5.93;;;3.50;;
43841;SDS011;29495;49.970;20.842;2023-03-23T21:18:20;6.30;;;3.85;;
43841;SDS011;29495;49.970;20.842;2023-03-23T21:20:47;5.72;;;3.65;;
43841;SDS011;29495;49.970;20.842;2023-03-23T21:23:14;6.28;;;3.20;;
43841;SDS011;29495;49.970;20.842;2023-03-23T21:25:41;4.80;;;3.13;;
43841;SDS011;29495;49.970;20.842;2023-03-23T21:28:09;6.00;;;3.25;;
43841;SDS011;29495;49.970;20.842;2023-03-23T21:30:36;6.32;;;3.00;;
43841;SDS011;29495;49.970;20.842;2023-03-23T21:33:06;5.47;;;3.45;;
43841;SDS011;29495;49.970;20.842;2023-03-23T21:35:33;5.55;;;3.40;;
43841;SDS011;29495;49.970;20.842;2023-03-23T21:38:00;5.50;;;3.78;;
43841;SDS011;29495;49.970;20.842;2023-03-23T21:40:25;7.53;;;4.30;;
43841;SDS011;29495;49.970;20.842;2023-03-23T21:42:51;6.00;;;3.75;;
43841;SDS011;29495;49.970;20.842;2023-03-23T21:45:17;7.35;;;4.45;;
43841;SDS011;29495;49.970;20.842;2023-03-23T21:47:46;8.15;;;4.35;;
43841;SDS011;29495;49.970;20.842;2023-03-23T21:50:13;5.78;;;3.95;;
43841;SDS011;29495;49.970;20.842;2023-03-23T21:52:39;6.95;;;4.28;;
43841;SDS011;29495;49.970;20.842;2023-03-23T21:55:08;8.70;;;5.13;;
43841;SDS011;29495;49.970;20.842;2023-03-23T21:57:37;8.80;;;5.07;;
43841;SDS011;29495;49.970;20.842;2023-03-23T22:00:04;6.85;;;4.55;;
43841;SDS011;29495;49.970;20.842;2023-03-23T22:02:33;8.63;;;5.10;;
43841;SDS011;29495;49.970;20.842;2023-03-23T22:04:59;9.32;;;5.43;;
43841;SDS011;29495;49.970;20.842;2023-03-23T22:07:24;12.25;;;5.45;;
43841;SDS011;29495;49.970;20.842;2023-03-23T22:09:51;8.30;;;4.90;;
43841;SDS011;29495;49.970;20.842;2023-03-23T22:12:17;8.77;;;5.50;;
43841;SDS011;29495;49.970;20.842;2023-03-23T22:14:46;10.45;;;5.00;;
43841;SDS011;29495;49.970;20.842;2023-03-23T22:17:12;8.52;;;5.20;;
43841;SDS011;29495;49.970;20.842;2023-03-23T22:19:38;11.30;;;6.72;;
43841;SDS011;29495;49.970;20.842;2023-03-23T22:22:04;8.93;;;4.85;;
43841;SDS011;29495;49.970;20.842;2023-03-23T22:24:30;10.02;;;5.60;;
43841;SDS011;29495;49.970;20.842;2023-03-23T22:26:56;8.35;;;4.88;;
43841;SDS011;29495;49.970;20.842;2023-03-23T22:29:22;9.50;;;5.28;;
43841;SDS011;29495;49.970;20.842;2023-03-23T22:31:48;9.40;;;5.38;;
43841;SDS011;29495;49.970;20.842;2023-03-23T22:34:14;10.23;;;6.07;;
43841;SDS011;29495;49.970;20.842;2023-03-23T22:36:42;12.13;;;6.50;;
43841;SDS011;29495;49.970;20.842;2023-03-23T22:39:08;11.65;;;6.95;;
43841;SDS011;29495;49.970;20.842;2023-03-23T22:41:38;10.88;;;6.22;;
43841;SDS011;29495;49.970;20.842;2023-03-23T22:44:13;10.77;;;6.20;;
43841;SDS011;29495;49.970;20.842;2023-03-23T22:46:42;12.32;;;7.03;;
43841;SDS011;29495;49.970;20.842;2023-03-23T22:49:09;10.60;;;6.10;;
43841;SDS011;29495;49.970;20.842;2023-03-23T22:51:35;12.10;;;6.15;;
43841;SDS011;29495;49.970;20.842;2023-03-23T22:54:02;8.73;;;5.50;;
43841;SDS011;29495;49.970;20.842;2023-03-23T22:56:29;8.45;;;5.05;;
43841;SDS011;29495;49.970;20.842;2023-03-23T22:58:56;10.60;;;5.50;;
43841;SDS011;29495;49.970;20.842;2023-03-23T23:01:24;8.60;;;5.67;;
43841;SDS011;29495;49.970;20.842;2023-03-23T23:03:51;9.27;;;5.07;;
43841;SDS011;29495;49.970;20.842;2023-03-23T23:06:18;10.50;;;6.18;;
43841;SDS011;29495;49.970;20.842;2023-03-23T23:08:45;8.43;;;5.43;;
43841;SDS011;29495;49.970;20.842;2023-03-23T23:11:13;10.30;;;5.60;;
43841;SDS011;29495;49.970;20.842;2023-03-23T23:13:41;9.18;;;5.75;;
43841;SDS011;29495;49.970;20.842;2023-03-23T23:16:08;10.48;;;6.15;;
43841;SDS011;29495;49.970;20.842;2023-03-23T23:18:37;10.43;;;6.15;;
43841;SDS011;29495;49.970;20.842;2023-03-23T23:21:06;9.80;;;5.57;;
43841;SDS011;29495;49.970;20.842;2023-03-23T23:26:00;9.50;;;5.50;;
43841;SDS011;29495;49.970;20.842;2023-03-23T23:28:26;9.18;;;5.45;;
43841;SDS011;29495;49.970;20.842;2023-03-23T23:30:52;10.02;;;6.43;;
43841;SDS011;29495;49.970;20.842;2023-03-23T23:33:20;9.27;;;5.20;;
43841;SDS011;29495;49.970;20.842;2023-03-23T23:35:48;6.53;;;4.65;;
43841;SDS011;29495;49.970;20.842;2023-03-23T23:38:14;9.65;;;5.43;;
43841;SDS011;29495;49.970;20.842;2023-03-23T23:40:41;7.53;;;4.72;;
43841;SDS011;29495;49.970;20.842;2023-03-23T23:43:09;8.98;;;4.82;;
43841;SDS011;29495;49.970;20.842;2023-03-23T23:45:39;8.43;;;4.72;;
43841;SDS011;29495;49.970;20.842;2023-03-23T23:48:05;6.95;;;4.25;;
43841;SDS011;29495;49.970;20.842;2023-03-23T23:50:34;6.85;;;4.80;;
43841;SDS011;29495;49.970;20.842;2023-03-23T23:53:00;7.40;;;4.40;;
43841;SDS011;29495;49.970;20.842;2023-03-23T23:55:27;6.55;;;4.32;;
43841;SDS011;29495;49.970;20.842;2023-03-23T23:57:53;9.68;;;5.13;;
